Airfield :
LOGIN :

Register | Disclaimer

   EN    FR    IT 

 










Legend :    VFR   Marginal VFR   IFR   Intensive IFR   Very Intensive IFR
Visi :
Ceiling :
>= 8 km
>= 3000ft
5 to 8 km
1000 to 3000 ft
1500m to 5 km
500 to 1000 ft
800 to 1500m
200 to 500 ft
< 800m
< 200 ft
Symbols :   Thunderstorms  Fog  Heavy snow  Heavy precipitations  Wind > 20 kt
SIGMETs :     Misc.  Thunderstorms  Icing  Turbulence  Mountain Waves  Volcanic Ashes






- Airport Elevation : 776 ft
- IATA code : RMS


ETAR - Ramstein Air Base

CURRENT METAR :
  • 180256Z 00000KT 6000 BR OVC036 03/03 A3059 RMK AO2A SLP372 T00270027 58001 $

EXPIRED METARs :
  • 180156Z 00000KT 8000 BR FEW008 OVC040 03/03 A3060 RMK AO2A SLP376 T00280028 $
  • 180141Z 00000KT 6000 BR SCT007 OVC040 03/03 A3060 RMK AO2A SLP376 $
  • 180101Z 00000KT 6000 BR OVC007 03/03 A3060 RMK AO2A SLP377 $
  • 180044Z 00000KT 8000 BR BKN008 BKN042 03/03 A3060 RMK AO2A VIS 4400 RWY08/26 VIS 4400 RWY09/27 BKN008 V FEW SLP377 $
  • 180026Z AUTO 00000KT 5000 BR FEW007 FEW043 02/02 A3059 RMK AO2 SLP374 $

TAF TAF ETAR
Valid from the 18 at 02:00 until the 19 at 08:00 UTC


180200Z 1802/1908 32006KT 5000 BR FEW007 BKN020 QNH3060INS
TEMPO 1803/1806 3200 BKN007
BECMG 1808/1809 05006KT 9999 NSW BKN015 QNH3052INS
BECMG 1821/1822 09006KT 5000 BR OVC010 QNH3031INS TX04/1813Z TN02/1805Z



MET'MAP, your aeronautical weather chart ! - Copyright ORBIFLY December 2007 - Disclaimer

ORBIFLY MET'MAP TEAM :

Programming & Development : Alexandra Zaïnal
Concept & original design : Baudouin d'Aumeries
Assistance for programming : Marc-Olivier Méhu
Technical & hardware support : Manuel Goepfert

Contact : metmap@orbifly.com




SOURCES & CREDITS :

   NOAA